sensor_id;sensor_type;location;lat;lon;timestamp;P1;durP1;ratioP1;P2;durP2;ratioP2
66087;SDS011;52872;52.994;6.940;2022-09-29T00:00:57;5.10;;;4.70;;
66087;SDS011;52872;52.994;6.940;2022-09-29T00:03:24;5.85;;;5.13;;
66087;SDS011;52872;52.994;6.940;2022-09-29T00:05:52;6.53;;;6.00;;
66087;SDS011;52872;52.994;6.940;2022-09-29T00:08:20;5.97;;;5.38;;
66087;SDS011;52872;52.994;6.940;2022-09-29T00:10:50;5.60;;;5.20;;
66087;SDS011;52872;52.994;6.940;2022-09-29T00:13:17;6.45;;;5.85;;
66087;SDS011;52872;52.994;6.940;2022-09-29T00:15:53;5.78;;;5.28;;
66087;SDS011;52872;52.994;6.940;2022-09-29T00:18:23;6.60;;;5.25;;
66087;SDS011;52872;52.994;6.940;2022-09-29T00:21:01;6.32;;;5.70;;
66087;SDS011;52872;52.994;6.940;2022-09-29T00:23:30;6.30;;;5.80;;
66087;SDS011;52872;52.994;6.940;2022-09-29T00:26:20;7.00;;;5.47;;
66087;SDS011;52872;52.994;6.940;2022-09-29T00:28:51;5.22;;;4.18;;
66087;SDS011;52872;52.994;6.940;2022-09-29T00:31:25;5.90;;;4.78;;
66087;SDS011;52872;52.994;6.940;2022-09-29T00:33:54;5.93;;;5.43;;
66087;SDS011;52872;52.994;6.940;2022-09-29T00:36:21;4.65;;;4.25;;
66087;SDS011;52872;52.994;6.940;2022-09-29T00:38:50;5.35;;;4.88;;
66087;SDS011;52872;52.994;6.940;2022-09-29T00:41:21;6.20;;;5.60;;
66087;SDS011;52872;52.994;6.940;2022-09-29T00:49:38;6.80;;;6.20;;
66087;SDS011;52872;52.994;6.940;2022-09-29T00:52:39;6.72;;;6.13;;
66087;SDS011;52872;52.994;6.940;2022-09-29T00:55:20;7.25;;;6.65;;
66087;SDS011;52872;52.994;6.940;2022-09-29T00:58:18;7.65;;;6.95;;
66087;SDS011;52872;52.994;6.940;2022-09-29T01:00:55;8.68;;;7.30;;
66087;SDS011;52872;52.994;6.940;2022-09-29T01:03:22;7.03;;;6.43;;
66087;SDS011;52872;52.994;6.940;2022-09-29T01:05:56;7.22;;;6.63;;
66087;SDS011;52872;52.994;6.940;2022-09-29T01:08:28;8.18;;;6.68;;
66087;SDS011;52872;52.994;6.940;2022-09-29T01:11:17;6.50;;;6.00;;
66087;SDS011;52872;52.994;6.940;2022-09-29T01:13:46;6.90;;;6.30;;
66087;SDS011;52872;52.994;6.940;2022-09-29T01:16:14;6.90;;;6.32;;
66087;SDS011;52872;52.994;6.940;2022-09-29T01:18:41;6.38;;;5.80;;
66087;SDS011;52872;52.994;6.940;2022-09-29T01:27:11;6.10;;;5.60;;
66087;SDS011;52872;52.994;6.940;2022-09-29T01:41:14;7.22;;;6.63;;
66087;SDS011;52872;52.994;6.940;2022-09-29T01:44:26;7.72;;;6.85;;
66087;SDS011;52872;52.994;6.940;2022-09-29T01:47:10;7.53;;;6.82;;
66087;SDS011;52872;52.994;6.940;2022-09-29T01:50:31;7.28;;;6.18;;
66087;SDS011;52872;52.994;6.940;2022-09-29T01:53:02;7.53;;;6.80;;
66087;SDS011;52872;52.994;6.940;2022-09-29T01:55:34;8.02;;;6.85;;
66087;SDS011;52872;52.994;6.940;2022-09-29T01:58:21;8.68;;;7.65;;
66087;SDS011;52872;52.994;6.940;2022-09-29T02:01:01;8.40;;;7.70;;
66087;SDS011;52872;52.994;6.940;2022-09-29T02:03:34;8.05;;;6.60;;
66087;SDS011;52872;52.994;6.940;2022-09-29T02:06:15;7.93;;;7.13;;
66087;SDS011;52872;52.994;6.940;2022-09-29T02:11:18;7.47;;;6.88;;
66087;SDS011;52872;52.994;6.940;2022-09-29T02:16:19;7.15;;;6.45;;
66087;SDS011;52872;52.994;6.940;2022-09-29T02:18:57;7.28;;;6.57;;
66087;SDS011;52872;52.994;6.940;2022-09-29T02:21:30;7.20;;;6.60;;
66087;SDS011;52872;52.994;6.940;2022-09-29T02:23:57;7.63;;;6.93;;
66087;SDS011;52872;52.994;6.940;2022-09-29T02:26:24;8.13;;;7.10;;
66087;SDS011;52872;52.994;6.940;2022-09-29T02:28:56;8.23;;;6.88;;
66087;SDS011;52872;52.994;6.940;2022-09-29T02:31:24;8.07;;;7.38;;
66087;SDS011;52872;52.994;6.940;2022-09-29T02:33:51;8.88;;;7.97;;
66087;SDS011;52872;52.994;6.940;2022-09-29T02:39:01;9.23;;;8.32;;
66087;SDS011;52872;52.994;6.940;2022-09-29T02:41:55;9.93;;;6.85;;
66087;SDS011;52872;52.994;6.940;2022-09-29T02:44:38;9.40;;;7.38;;
66087;SDS011;52872;52.994;6.940;2022-09-29T02:55:50;7.63;;;6.65;;
66087;SDS011;52872;52.994;6.940;2022-09-29T02:58:46;6.72;;;6.13;;
66087;SDS011;52872;52.994;6.940;2022-09-29T03:01:21;7.90;;;6.67;;
66087;SDS011;52872;52.994;6.940;2022-09-29T03:03:48;9.93;;;7.90;;
66087;SDS011;52872;52.994;6.940;2022-09-29T03:06:15;7.97;;;6.18;;
66087;SDS011;52872;52.994;6.940;2022-09-29T03:08:44;11.50;;;6.40;;
66087;SDS011;52872;52.994;6.940;2022-09-29T03:11:11;14.68;;;7.38;;
66087;SDS011;52872;52.994;6.940;2022-09-29T03:13:38;7.53;;;6.80;;
66087;SDS011;52872;52.994;6.940;2022-09-29T03:16:05;7.63;;;5.75;;
66087;SDS011;52872;52.994;6.940;2022-09-29T03:18:32;7.03;;;6.32;;
66087;SDS011;52872;52.994;6.940;2022-09-29T03:20:58;7.07;;;6.30;;
66087;SDS011;52872;52.994;6.940;2022-09-29T03:23:25;6.93;;;6.28;;
66087;SDS011;52872;52.994;6.940;2022-09-29T03:25:52;6.68;;;6.07;;
66087;SDS011;52872;52.994;6.940;2022-09-29T03:28:20;6.78;;;6.18;;
66087;SDS011;52872;52.994;6.940;2022-09-29T03:30:47;6.55;;;6.00;;
66087;SDS011;52872;52.994;6.940;2022-09-29T03:33:13;6.25;;;5.65;;
66087;SDS011;52872;52.994;6.940;2022-09-29T03:35:40;6.63;;;6.13;;
66087;SDS011;52872;52.994;6.940;2022-09-29T03:38:09;6.75;;;6.18;;
66087;SDS011;52872;52.994;6.940;2022-09-29T03:40:36;5.97;;;5.47;;
66087;SDS011;52872;52.994;6.940;2022-09-29T03:43:03;6.95;;;6.15;;
66087;SDS011;52872;52.994;6.940;2022-09-29T03:45:30;11.20;;;7.07;;
66087;SDS011;52872;52.994;6.940;2022-09-29T03:47:57;7.15;;;6.00;;
66087;SDS011;52872;52.994;6.940;2022-09-29T03:50:24;12.13;;;6.22;;
66087;SDS011;52872;52.994;6.940;2022-09-29T03:52:51;16.35;;;6.40;;
66087;SDS011;52872;52.994;6.940;2022-09-29T03:55:18;20.42;;;7.57;;
66087;SDS011;52872;52.994;6.940;2022-09-29T03:57:45;30.35;;;7.32;;
66087;SDS011;52872;52.994;6.940;2022-09-29T04:00:12;22.67;;;7.07;;
66087;SDS011;52872;52.994;6.940;2022-09-29T04:02:39;62.03;;;9.52;;
66087;SDS011;52872;52.994;6.940;2022-09-29T04:05:06;61.78;;;10.40;;
66087;SDS011;52872;52.994;6.940;2022-09-29T04:07:33;118.22;;;12.15;;
66087;SDS011;52872;52.994;6.940;2022-09-29T04:10:00;86.03;;;10.75;;
66087;SDS011;52872;52.994;6.940;2022-09-29T04:12:27;89.80;;;10.93;;
66087;SDS011;52872;52.994;6.940;2022-09-29T04:14:54;66.55;;;9.63;;
66087;SDS011;52872;52.994;6.940;2022-09-29T04:17:21;52.58;;;10.15;;
66087;SDS011;52872;52.994;6.940;2022-09-29T04:19:48;43.05;;;9.45;;
66087;SDS011;52872;52.994;6.940;2022-09-29T04:22:15;53.33;;;8.80;;
66087;SDS011;52872;52.994;6.940;2022-09-29T04:24:45;69.32;;;10.40;;
66087;SDS011;52872;52.994;6.940;2022-09-29T04:27:13;38.60;;;8.70;;
66087;SDS011;52872;52.994;6.940;2022-09-29T04:29:41;35.20;;;8.90;;
66087;SDS011;52872;52.994;6.940;2022-09-29T04:32:08;41.45;;;9.23;;
66087;SDS011;52872;52.994;6.940;2022-09-29T04:34:35;53.35;;;9.52;;
66087;SDS011;52872;52.994;6.940;2022-09-29T04:37:02;47.00;;;8.98;;
66087;SDS011;52872;52.994;6.940;2022-09-29T04:39:29;57.05;;;9.50;;
66087;SDS011;52872;52.994;6.940;2022-09-29T04:41:56;44.25;;;10.15;;
66087;SDS011;52872;52.994;6.940;2022-09-29T04:44:23;24.13;;;9.05;;
66087;SDS011;52872;52.994;6.940;2022-09-29T04:46:51;30.13;;;9.10;;
66087;SDS011;52872;52.994;6.940;2022-09-29T04:49:18;48.28;;;9.82;;
66087;SDS011;52872;52.994;6.940;2022-09-29T04:51:45;20.08;;;8.35;;
66087;SDS011;52872;52.994;6.940;2022-09-29T04:54:13;24.45;;;8.20;;
66087;SDS011;52872;52.994;6.940;2022-09-29T04:56:40;15.85;;;8.27;;
66087;SDS011;52872;52.994;6.940;2022-09-29T04:59:08;25.48;;;8.98;;
66087;SDS011;52872;52.994;6.940;2022-09-29T05:01:36;12.73;;;8.30;;
66087;SDS011;52872;52.994;6.940;2022-09-29T05:04:02;41.67;;;9.73;;
66087;SDS011;52872;52.994;6.940;2022-09-29T05:06:29;31.73;;;9.73;;
66087;SDS011;52872;52.994;6.940;2022-09-29T05:08:56;32.25;;;9.10;;
66087;SDS011;52872;52.994;6.940;2022-09-29T05:11:23;35.17;;;8.73;;
66087;SDS011;52872;52.994;6.940;2022-09-29T05:13:50;29.17;;;9.25;;
66087;SDS011;52872;52.994;6.940;2022-09-29T05:16:17;32.28;;;9.30;;
66087;SDS011;52872;52.994;6.940;2022-09-29T05:18:44;40.53;;;10.05;;
66087;SDS011;52872;52.994;6.940;2022-09-29T05:21:11;37.75;;;10.38;;
66087;SDS011;52872;52.994;6.940;2022-09-29T05:23:54;30.63;;;9.70;;
66087;SDS011;52872;52.994;6.940;2022-09-29T05:26:22;58.10;;;12.00;;
66087;SDS011;52872;52.994;6.940;2022-09-29T05:28:49;55.00;;;13.50;;
66087;SDS011;52872;52.994;6.940;2022-09-29T05:31:16;50.65;;;11.45;;
66087;SDS011;52872;52.994;6.940;2022-09-29T05:33:43;63.15;;;12.90;;
66087;SDS011;52872;52.994;6.940;2022-09-29T05:36:10;60.15;;;12.57;;
66087;SDS011;52872;52.994;6.940;2022-09-29T05:38:38;87.20;;;13.35;;
66087;SDS011;52872;52.994;6.940;2022-09-29T05:41:06;66.32;;;14.10;;
66087;SDS011;52872;52.994;6.940;2022-09-29T05:43:36;108.22;;;14.07;;
66087;SDS011;52872;52.994;6.940;2022-09-29T05:46:04;131.48;;;13.35;;
66087;SDS011;52872;52.994;6.940;2022-09-29T05:48:33;105.50;;;14.25;;
66087;SDS011;52872;52.994;6.940;2022-09-29T05:51:05;112.28;;;14.38;;
66087;SDS011;52872;52.994;6.940;2022-09-29T05:53:36;107.10;;;12.77;;
66087;SDS011;52872;52.994;6.940;2022-09-29T05:56:08;86.93;;;13.30;;
66087;SDS011;52872;52.994;6.940;2022-09-29T05:58:38;68.45;;;11.60;;
66087;SDS011;52872;52.994;6.940;2022-09-29T06:01:06;31.48;;;9.45;;
66087;SDS011;52872;52.994;6.940;2022-09-29T06:03:38;57.35;;;10.23;;
66087;SDS011;52872;52.994;6.940;2022-09-29T06:08:40;21.33;;;8.43;;
66087;SDS011;52872;52.994;6.940;2022-09-29T06:11:08;20.48;;;8.70;;
66087;SDS011;52872;52.994;6.940;2022-09-29T06:13:44;24.50;;;8.50;;
66087;SDS011;52872;52.994;6.940;2022-09-29T06:16:13;11.23;;;7.78;;
66087;SDS011;52872;52.994;6.940;2022-09-29T06:18:41;10.63;;;8.40;;
66087;SDS011;52872;52.994;6.940;2022-09-29T06:21:09;34.53;;;9.32;;
66087;SDS011;52872;52.994;6.940;2022-09-29T06:23:42;31.42;;;8.77;;
66087;SDS011;52872;52.994;6.940;2022-09-29T06:26:10;25.77;;;8.63;;
66087;SDS011;52872;52.994;6.940;2022-09-29T06:28:39;10.43;;;7.97;;
66087;SDS011;52872;52.994;6.940;2022-09-29T06:31:10;13.68;;;8.05;;
66087;SDS011;52872;52.994;6.940;2022-09-29T06:33:42;11.98;;;8.60;;
66087;SDS011;52872;52.994;6.940;2022-09-29T06:36:15;8.73;;;7.97;;
66087;SDS011;52872;52.994;6.940;2022-09-29T06:39:03;18.30;;;9.88;;
66087;SDS011;52872;52.994;6.940;2022-09-29T06:41:31;11.68;;;9.75;;
66087;SDS011;52872;52.994;6.940;2022-09-29T06:43:58;16.33;;;9.43;;
66087;SDS011;52872;52.994;6.940;2022-09-29T06:46:25;20.13;;;10.68;;
66087;SDS011;52872;52.994;6.940;2022-09-29T06:48:52;19.45;;;11.70;;
66087;SDS011;52872;52.994;6.940;2022-09-29T06:51:20;11.15;;;10.00;;
66087;SDS011;52872;52.994;6.940;2022-09-29T06:53:48;10.88;;;9.68;;
66087;SDS011;52872;52.994;6.940;2022-09-29T06:56:17;14.57;;;10.85;;
66087;SDS011;52872;52.994;6.940;2022-09-29T06:58:44;10.85;;;9.82;;
66087;SDS011;52872;52.994;6.940;2022-09-29T07:01:12;12.25;;;10.90;;
66087;SDS011;52872;52.994;6.940;2022-09-29T07:03:39;11.43;;;10.32;;
66087;SDS011;52872;52.994;6.940;2022-09-29T07:06:07;13.52;;;9.35;;
66087;SDS011;52872;52.994;6.940;2022-09-29T07:08:54;9.98;;;8.98;;
66087;SDS011;52872;52.994;6.940;2022-09-29T07:11:22;10.93;;;9.80;;
66087;SDS011;52872;52.994;6.940;2022-09-29T07:13:51;11.38;;;10.27;;
66087;SDS011;52872;52.994;6.940;2022-09-29T07:16:20;12.15;;;10.50;;
66087;SDS011;52872;52.994;6.940;2022-09-29T07:18:51;16.92;;;11.20;;
66087;SDS011;52872;52.994;6.940;2022-09-29T07:21:18;12.85;;;11.55;;
66087;SDS011;52872;52.994;6.940;2022-09-29T07:23:46;13.57;;;12.15;;
66087;SDS011;52872;52.994;6.940;2022-09-29T07:26:15;22.88;;;11.68;;
66087;SDS011;52872;52.994;6.940;2022-09-29T07:28:43;16.02;;;11.55;;
66087;SDS011;52872;52.994;6.940;2022-09-29T07:31:12;18.83;;;11.40;;
66087;SDS011;52872;52.994;6.940;2022-09-29T07:33:45;16.83;;;11.27;;
66087;SDS011;52872;52.994;6.940;2022-09-29T07:36:14;15.15;;;10.98;;
66087;SDS011;52872;52.994;6.940;2022-09-29T07:38:46;16.08;;;12.30;;
66087;SDS011;52872;52.994;6.940;2022-09-29T07:41:14;12.80;;;11.50;;
66087;SDS011;52872;52.994;6.940;2022-09-29T07:43:42;13.02;;;11.60;;
66087;SDS011;52872;52.994;6.940;2022-09-29T07:46:09;20.33;;;12.90;;
66087;SDS011;52872;52.994;6.940;2022-09-29T07:48:37;13.52;;;12.32;;
66087;SDS011;52872;52.994;6.940;2022-09-29T07:51:08;17.77;;;13.00;;
66087;SDS011;52872;52.994;6.940;2022-09-29T07:53:40;14.05;;;12.63;;
66087;SDS011;52872;52.994;6.940;2022-09-29T07:56:08;29.90;;;13.18;;
66087;SDS011;52872;52.994;6.940;2022-09-29T07:58:35;16.85;;;12.15;;
66087;SDS011;52872;52.994;6.940;2022-09-29T08:01:03;14.00;;;12.10;;
66087;SDS011;52872;52.994;6.940;2022-09-29T08:03:36;19.13;;;16.90;;
66087;SDS011;52872;52.994;6.940;2022-09-29T08:06:04;32.13;;;29.52;;
66087;SDS011;52872;52.994;6.940;2022-09-29T08:08:38;28.75;;;26.35;;
66087;SDS011;52872;52.994;6.940;2022-09-29T08:11:08;17.50;;;14.88;;
66087;SDS011;52872;52.994;6.940;2022-09-29T08:13:50;15.68;;;14.13;;
66087;SDS011;52872;52.994;6.940;2022-09-29T08:16:21;33.58;;;30.55;;
66087;SDS011;52872;52.994;6.940;2022-09-29T08:18:48;18.42;;;16.52;;
66087;SDS011;52872;52.994;6.940;2022-09-29T08:21:15;19.65;;;17.65;;
66087;SDS011;52872;52.994;6.940;2022-09-29T08:23:42;73.72;;;60.17;;
66087;SDS011;52872;52.994;6.940;2022-09-29T08:26:14;14.73;;;13.20;;
66087;SDS011;52872;52.994;6.940;2022-09-29T08:28:42;21.45;;;19.27;;
66087;SDS011;52872;52.994;6.940;2022-09-29T08:31:12;14.63;;;13.23;;
66087;SDS011;52872;52.994;6.940;2022-09-29T08:33:49;14.50;;;13.10;;
66087;SDS011;52872;52.994;6.940;2022-09-29T08:36:20;15.32;;;13.82;;
66087;SDS011;52872;52.994;6.940;2022-09-29T08:38:47;17.98;;;16.13;;
66087;SDS011;52872;52.994;6.940;2022-09-29T08:46:56;20.90;;;19.00;;
66087;SDS011;52872;52.994;6.940;2022-09-29T08:49:40;19.55;;;17.67;;
66087;SDS011;52872;52.994;6.940;2022-09-29T08:52:12;15.88;;;14.30;;
66087;SDS011;52872;52.994;6.940;2022-09-29T08:54:46;15.13;;;13.60;;
66087;SDS011;52872;52.994;6.940;2022-09-29T08:57:16;13.90;;;12.43;;
66087;SDS011;52872;52.994;6.940;2022-09-29T08:59:54;14.57;;;13.10;;
66087;SDS011;52872;52.994;6.940;2022-09-29T09:02:38;14.57;;;13.10;;
66087;SDS011;52872;52.994;6.940;2022-09-29T09:22:01;16.10;;;14.50;;
66087;SDS011;52872;52.994;6.940;2022-09-29T09:27:15;14.32;;;12.93;;
66087;SDS011;52872;52.994;6.940;2022-09-29T09:29:48;15.30;;;11.77;;
66087;SDS011;52872;52.994;6.940;2022-09-29T09:32:24;12.90;;;11.68;;
66087;SDS011;52872;52.994;6.940;2022-09-29T09:34:55;12.85;;;11.70;;
66087;SDS011;52872;52.994;6.940;2022-09-29T09:37:43;10.65;;;9.65;;
66087;SDS011;52872;52.994;6.940;2022-09-29T09:43:02;9.75;;;8.82;;
66087;SDS011;52872;52.994;6.940;2022-09-29T09:45:35;9.80;;;8.80;;
66087;SDS011;52872;52.994;6.940;2022-09-29T09:50:58;8.75;;;7.88;;
66087;SDS011;52872;52.994;6.940;2022-09-29T09:53:41;8.25;;;7.45;;
66087;SDS011;52872;52.994;6.940;2022-09-29T09:59:01;9.50;;;8.60;;
66087;SDS011;52872;52.994;6.940;2022-09-29T10:01:29;7.57;;;6.78;;
66087;SDS011;52872;52.994;6.940;2022-09-29T10:03:56;7.85;;;7.05;;
66087;SDS011;52872;52.994;6.940;2022-09-29T10:06:25;7.95;;;7.15;;
66087;SDS011;52872;52.994;6.940;2022-09-29T10:08:52;8.73;;;7.55;;
66087;SDS011;52872;52.994;6.940;2022-09-29T10:11:23;8.88;;;6.60;;
66087;SDS011;52872;52.994;6.940;2022-09-29T10:14:00;7.27;;;6.67;;
66087;SDS011;52872;52.994;6.940;2022-09-29T10:16:44;6.22;;;5.53;;
66087;SDS011;52872;52.994;6.940;2022-09-29T10:22:20;6.85;;;6.30;;
66087;SDS011;52872;52.994;6.940;2022-09-29T10:24:47;10.07;;;9.35;;
66087;SDS011;52872;52.994;6.940;2022-09-29T10:27:22;6.82;;;5.95;;
66087;SDS011;52872;52.994;6.940;2022-09-29T10:29:53;5.78;;;5.38;;
66087;SDS011;52872;52.994;6.940;2022-09-29T10:32:24;4.70;;;4.10;;
66087;SDS011;52872;52.994;6.940;2022-09-29T10:35:03;5.68;;;5.18;;
66087;SDS011;52872;52.994;6.940;2022-09-29T10:37:45;6.20;;;5.80;;
66087;SDS011;52872;52.994;6.940;2022-09-29T10:40:14;5.82;;;4.75;;
66087;SDS011;52872;52.994;6.940;2022-09-29T10:42:47;4.47;;;4.18;;
66087;SDS011;52872;52.994;6.940;2022-09-29T10:45:22;4.65;;;4.28;;
66087;SDS011;52872;52.994;6.940;2022-09-29T10:53:27;5.45;;;4.97;;
66087;SDS011;52872;52.994;6.940;2022-09-29T10:58:44;4.97;;;4.57;;
66087;SDS011;52872;52.994;6.940;2022-09-29T11:01:30;4.22;;;3.92;;
66087;SDS011;52872;52.994;6.940;2022-09-29T11:04:02;4.47;;;4.07;;
66087;SDS011;52872;52.994;6.940;2022-09-29T11:06:35;5.20;;;4.00;;
66087;SDS011;52872;52.994;6.940;2022-09-29T11:11:39;3.75;;;3.30;;
66087;SDS011;52872;52.994;6.940;2022-09-29T11:16:56;2.85;;;2.55;;
66087;SDS011;52872;52.994;6.940;2022-09-29T11:19:25;3.28;;;2.85;;
66087;SDS011;52872;52.994;6.940;2022-09-29T11:29:44;2.58;;;2.38;;
66087;SDS011;52872;52.994;6.940;2022-09-29T11:33:13;4.13;;;3.38;;
66087;SDS011;52872;52.994;6.940;2022-09-29T11:38:50;3.70;;;1.90;;
66087;SDS011;52872;52.994;6.940;2022-09-29T11:49:30;2.47;;;2.28;;
66087;SDS011;52872;52.994;6.940;2022-09-29T12:03:40;2.67;;;2.42;;
66087;SDS011;52872;52.994;6.940;2022-09-29T12:06:16;2.15;;;1.63;;
66087;SDS011;52872;52.994;6.940;2022-09-29T12:11:59;2.50;;;2.30;;
66087;SDS011;52872;52.994;6.940;2022-09-29T12:17:40;2.35;;;2.10;;
66087;SDS011;52872;52.994;6.940;2022-09-29T12:20:24;3.35;;;3.15;;
66087;SDS011;52872;52.994;6.940;2022-09-29T12:22:52;3.55;;;3.25;;
66087;SDS011;52872;52.994;6.940;2022-09-29T12:25:24;2.58;;;1.75;;
66087;SDS011;52872;52.994;6.940;2022-09-29T12:27:55;2.25;;;2.15;;
66087;SDS011;52872;52.994;6.940;2022-09-29T12:30:32;4.55;;;3.10;;
66087;SDS011;52872;52.994;6.940;2022-09-29T12:33:12;3.35;;;3.05;;
66087;SDS011;52872;52.994;6.940;2022-09-29T12:38:57;2.08;;;1.77;;
66087;SDS011;52872;52.994;6.940;2022-09-29T12:41:36;3.00;;;2.15;;
66087;SDS011;52872;52.994;6.940;2022-09-29T12:47:44;2.10;;;1.95;;
66087;SDS011;52872;52.994;6.940;2022-09-29T12:50:13;1.85;;;1.75;;
66087;SDS011;52872;52.994;6.940;2022-09-29T12:52:53;3.53;;;3.10;;
66087;SDS011;52872;52.994;6.940;2022-09-29T12:58:24;1.92;;;1.58;;
66087;SDS011;52872;52.994;6.940;2022-09-29T13:09:45;1.30;;;1.20;;
66087;SDS011;52872;52.994;6.940;2022-09-29T13:18:37;1.58;;;1.58;;
66087;SDS011;52872;52.994;6.940;2022-09-29T13:21:48;3.40;;;3.13;;
66087;SDS011;52872;52.994;6.940;2022-09-29T13:29:57;2.75;;;1.95;;
66087;SDS011;52872;52.994;6.940;2022-09-29T13:32:30;2.72;;;1.60;;
66087;SDS011;52872;52.994;6.940;2022-09-29T13:34:59;1.02;;;1.00;;
66087;SDS011;52872;52.994;6.940;2022-09-29T13:37:32;1.63;;;1.52;;
66087;SDS011;52872;52.994;6.940;2022-09-29T13:40:14;2.35;;;2.15;;
66087;SDS011;52872;52.994;6.940;2022-09-29T13:42:50;2.67;;;2.35;;
66087;SDS011;52872;52.994;6.940;2022-09-29T13:47:57;3.50;;;2.67;;
66087;SDS011;52872;52.994;6.940;2022-09-29T14:00:53;2.08;;;1.90;;
66087;SDS011;52872;52.994;6.940;2022-09-29T14:03:23;4.32;;;1.30;;
66087;SDS011;52872;52.994;6.940;2022-09-29T14:09:18;1.17;;;1.08;;
66087;SDS011;52872;52.994;6.940;2022-09-29T14:11:52;2.20;;;2.03;;
66087;SDS011;52872;52.994;6.940;2022-09-29T14:14:23;2.72;;;2.00;;
66087;SDS011;52872;52.994;6.940;2022-09-29T14:27:46;1.42;;;1.33;;
66087;SDS011;52872;52.994;6.940;2022-09-29T14:35:38;0.93;;;0.93;;
66087;SDS011;52872;52.994;6.940;2022-09-29T14:57:57;0.90;;;0.90;;
66087;SDS011;52872;52.994;6.940;2022-09-29T15:03:38;2.58;;;1.23;;
66087;SDS011;52872;52.994;6.940;2022-09-29T15:06:14;1.77;;;1.58;;
66087;SDS011;52872;52.994;6.940;2022-09-29T15:08:53;3.03;;;2.13;;
66087;SDS011;52872;52.994;6.940;2022-09-29T15:11:41;2.78;;;2.58;;
66087;SDS011;52872;52.994;6.940;2022-09-29T15:14:45;1.92;;;1.83;;
66087;SDS011;52872;52.994;6.940;2022-09-29T15:22:14;2.67;;;2.47;;
66087;SDS011;52872;52.994;6.940;2022-09-29T15:27:48;3.13;;;1.52;;
66087;SDS011;52872;52.994;6.940;2022-09-29T15:30:17;2.65;;;1.70;;
66087;SDS011;52872;52.994;6.940;2022-09-29T15:32:46;5.10;;;2.40;;
66087;SDS011;52872;52.994;6.940;2022-09-29T15:35:16;1.55;;;1.10;;
66087;SDS011;52872;52.994;6.940;2022-09-29T15:40:19;2.20;;;2.10;;
66087;SDS011;52872;52.994;6.940;2022-09-29T15:42:48;3.40;;;1.98;;
66087;SDS011;52872;52.994;6.940;2022-09-29T15:45:19;1.63;;;1.52;;
66087;SDS011;52872;52.994;6.940;2022-09-29T15:47:48;3.40;;;1.40;;
66087;SDS011;52872;52.994;6.940;2022-09-29T15:50:30;1.98;;;1.88;;
66087;SDS011;52872;52.994;6.940;2022-09-29T15:53:01;1.83;;;1.73;;
66087;SDS011;52872;52.994;6.940;2022-09-29T15:55:29;2.45;;;1.98;;
66087;SDS011;52872;52.994;6.940;2022-09-29T15:57:57;2.42;;;1.33;;
66087;SDS011;52872;52.994;6.940;2022-09-29T16:05:22;1.70;;;1.60;;
66087;SDS011;52872;52.994;6.940;2022-09-29T16:07:55;1.40;;;1.30;;
66087;SDS011;52872;52.994;6.940;2022-09-29T16:13:17;2.72;;;2.63;;
66087;SDS011;52872;52.994;6.940;2022-09-29T16:15:47;3.50;;;1.83;;
66087;SDS011;52872;52.994;6.940;2022-09-29T16:18:25;1.70;;;1.60;;
66087;SDS011;52872;52.994;6.940;2022-09-29T16:20:55;1.60;;;1.25;;
66087;SDS011;52872;52.994;6.940;2022-09-29T16:26:39;4.88;;;2.08;;
66087;SDS011;52872;52.994;6.940;2022-09-29T16:31:44;4.30;;;2.22;;
66087;SDS011;52872;52.994;6.940;2022-09-29T16:37:04;2.63;;;2.30;;
66087;SDS011;52872;52.994;6.940;2022-09-29T16:39:42;2.95;;;1.90;;
66087;SDS011;52872;52.994;6.940;2022-09-29T16:42:24;8.45;;;2.13;;
66087;SDS011;52872;52.994;6.940;2022-09-29T16:44:53;4.38;;;4.07;;
66087;SDS011;52872;52.994;6.940;2022-09-29T16:47:22;3.20;;;2.53;;
66087;SDS011;52872;52.994;6.940;2022-09-29T16:49:56;5.28;;;4.60;;
66087;SDS011;52872;52.994;6.940;2022-09-29T16:52:43;3.53;;;3.33;;
66087;SDS011;52872;52.994;6.940;2022-09-29T16:57:53;2.83;;;2.33;;
66087;SDS011;52872;52.994;6.940;2022-09-29T17:00:41;2.95;;;2.00;;
66087;SDS011;52872;52.994;6.940;2022-09-29T17:03:08;4.10;;;2.72;;
66087;SDS011;52872;52.994;6.940;2022-09-29T17:05:36;4.68;;;2.85;;
66087;SDS011;52872;52.994;6.940;2022-09-29T17:08:33;2.55;;;2.03;;
66087;SDS011;52872;52.994;6.940;2022-09-29T17:11:02;1.83;;;1.73;;
66087;SDS011;52872;52.994;6.940;2022-09-29T17:13:31;2.53;;;2.35;;
66087;SDS011;52872;52.994;6.940;2022-09-29T17:16:00;2.60;;;2.40;;
66087;SDS011;52872;52.994;6.940;2022-09-29T17:18:27;2.95;;;2.72;;
66087;SDS011;52872;52.994;6.940;2022-09-29T17:20:54;2.38;;;2.17;;
66087;SDS011;52872;52.994;6.940;2022-09-29T17:23:21;4.07;;;3.25;;
66087;SDS011;52872;52.994;6.940;2022-09-29T17:25:48;2.88;;;2.00;;
66087;SDS011;52872;52.994;6.940;2022-09-29T17:28:17;3.03;;;2.80;;
66087;SDS011;52872;52.994;6.940;2022-09-29T17:30:49;3.35;;;2.53;;
66087;SDS011;52872;52.994;6.940;2022-09-29T17:33:17;2.10;;;1.90;;
66087;SDS011;52872;52.994;6.940;2022-09-29T17:35:46;3.22;;;3.03;;
66087;SDS011;52872;52.994;6.940;2022-09-29T17:38:20;2.75;;;2.03;;
66087;SDS011;52872;52.994;6.940;2022-09-29T17:43:20;3.35;;;2.75;;
66087;SDS011;52872;52.994;6.940;2022-09-29T17:45:50;3.00;;;2.30;;
66087;SDS011;52872;52.994;6.940;2022-09-29T17:48:19;2.13;;;1.95;;
66087;SDS011;52872;52.994;6.940;2022-09-29T17:50:47;2.35;;;2.15;;
66087;SDS011;52872;52.994;6.940;2022-09-29T17:53:16;3.25;;;2.42;;
66087;SDS011;52872;52.994;6.940;2022-09-29T17:55:47;3.22;;;1.95;;
66087;SDS011;52872;52.994;6.940;2022-09-29T17:58:16;2.33;;;2.10;;
66087;SDS011;52872;52.994;6.940;2022-09-29T18:00:45;3.65;;;2.10;;
66087;SDS011;52872;52.994;6.940;2022-09-29T18:03:15;12.52;;;4.13;;
66087;SDS011;52872;52.994;6.940;2022-09-29T18:05:44;13.38;;;6.97;;
66087;SDS011;52872;52.994;6.940;2022-09-29T18:08:14;14.43;;;8.20;;
66087;SDS011;52872;52.994;6.940;2022-09-29T18:10:48;15.93;;;9.85;;
66087;SDS011;52872;52.994;6.940;2022-09-29T18:13:18;14.18;;;8.73;;
66087;SDS011;52872;52.994;6.940;2022-09-29T18:15:45;16.75;;;7.68;;
66087;SDS011;52872;52.994;6.940;2022-09-29T18:18:13;5.43;;;3.15;;
66087;SDS011;52872;52.994;6.940;2022-09-29T18:20:43;4.43;;;1.80;;
66087;SDS011;52872;52.994;6.940;2022-09-29T18:23:12;2.80;;;1.77;;
66087;SDS011;52872;52.994;6.940;2022-09-29T18:25:42;2.20;;;1.70;;
66087;SDS011;52872;52.994;6.940;2022-09-29T18:28:13;1.80;;;1.70;;
66087;SDS011;52872;52.994;6.940;2022-09-29T18:30:41;2.33;;;1.77;;
66087;SDS011;52872;52.994;6.940;2022-09-29T18:33:12;2.83;;;2.42;;
66087;SDS011;52872;52.994;6.940;2022-09-29T18:35:43;3.40;;;3.10;;
66087;SDS011;52872;52.994;6.940;2022-09-29T18:38:12;3.92;;;3.33;;
66087;SDS011;52872;52.994;6.940;2022-09-29T18:40:39;5.78;;;4.55;;
66087;SDS011;52872;52.994;6.940;2022-09-29T18:43:06;3.80;;;3.00;;
66087;SDS011;52872;52.994;6.940;2022-09-29T18:45:37;3.30;;;2.97;;
66087;SDS011;52872;52.994;6.940;2022-09-29T18:48:09;2.10;;;1.90;;
66087;SDS011;52872;52.994;6.940;2022-09-29T18:50:41;2.72;;;2.47;;
66087;SDS011;52872;52.994;6.940;2022-09-29T18:53:10;3.05;;;2.85;;
66087;SDS011;52872;52.994;6.940;2022-09-29T18:55:39;3.15;;;2.50;;
66087;SDS011;52872;52.994;6.940;2022-09-29T18:58:12;3.83;;;3.53;;
66087;SDS011;52872;52.994;6.940;2022-09-29T19:00:42;2.90;;;2.55;;
66087;SDS011;52872;52.994;6.940;2022-09-29T19:03:11;2.47;;;2.28;;
66087;SDS011;52872;52.994;6.940;2022-09-29T19:05:39;3.35;;;3.05;;
66087;SDS011;52872;52.994;6.940;2022-09-29T19:08:07;5.75;;;2.42;;
66087;SDS011;52872;52.994;6.940;2022-09-29T19:10:37;2.63;;;2.30;;
66087;SDS011;52872;52.994;6.940;2022-09-29T19:13:07;2.92;;;2.40;;
66087;SDS011;52872;52.994;6.940;2022-09-29T19:15:42;3.60;;;2.17;;